Time;durP1;ratioP1;P1;durP2;ratioP2;P2;SDS_P1;SDS_P2;PMS_P1;PMS_P2;Temp;Humidity;BMP_temperature;BMP_pressure;BME280_temperature;BME280_humidity;BME280_pressure;Samples;Min_cycle;Max_cycle;Signal;HPM_P1;HPM_P2
2023/05/12 00:00:58;;;;;;;5.10;3.40;;;;;;;;;;5034444;28;20879;-85
2023/05/12 00:03:23;;;;;;;6.77;4.20;;;;;;;;;;5034411;28;20185;-81
2023/05/12 00:05:49;;;;;;;3.33;2.63;;;;;;;;;;5016666;28;20430;-82
2023/05/12 00:08:18;;;;;;;5.70;4.30;;;;;;;;;;5034308;28;20481;-80
2023/05/12 00:10:44;;;;;;;6.97;3.40;;;;;;;;;;5034267;28;20413;-81
2023/05/12 00:13:10;;;;;;;5.70;3.00;;;;;;;;;;5034229;28;20448;-81
2023/05/12 00:15:36;;;;;;;4.13;3.30;;;;;;;;;;5036201;28;20453;-84
2023/05/12 00:18:05;;;;;;;4.20;3.03;;;;;;;;;;5020744;28;20433;-81
2023/05/12 00:20:31;;;;;;;3.80;2.80;;;;;;;;;;5032230;28;20409;-80
2023/05/12 00:22:57;;;;;;;4.70;3.80;;;;;;;;;;5014873;28;20516;-82
2023/05/12 00:25:22;;;;;;;3.10;2.80;;;;;;;;;;5041084;28;20506;-81
2023/05/12 00:27:48;;;;;;;5.60;3.20;;;;;;;;;;5042664;28;20423;-81
2023/05/12 00:30:14;;;;;;;3.40;2.80;;;;;;;;;;5043833;28;20902;-82
2023/05/12 00:32:40;;;;;;;3.20;2.30;;;;;;;;;;5043790;28;20205;-85
2023/05/12 00:35:06;;;;;;;4.23;2.73;;;;;;;;;;5042484;28;20917;-85
2023/05/12 00:37:32;;;;;;;6.27;2.20;;;;;;;;;;5044824;28;20261;-80
2023/05/12 00:39:58;;;;;;;5.37;3.30;;;;;;;;;;5042338;28;20447;-81
2023/05/12 00:42:24;;;;;;;4.27;3.10;;;;;;;;;;5042781;28;20321;-83
2023/05/12 00:44:50;;;;;;;3.03;2.73;;;;;;;;;;5022893;28;20430;-84
2023/05/12 00:47:16;;;;;;;3.73;2.60;;;;;;;;;;5042948;28;20545;-80
2023/05/12 00:49:42;;;;;;;2.63;1.87;;;;;;;;;;5042005;28;20758;-85
2023/05/12 00:52:09;;;;;;;2.90;2.10;;;;;;;;;;5041826;28;20417;-84
2023/05/12 00:54:35;;;;;;;3.10;2.13;;;;;;;;;;5042240;28;20408;-81
2023/05/12 00:57:01;;;;;;;4.20;3.40;;;;;;;;;;5042974;28;20477;-80
2023/05/12 00:59:28;;;;;;;3.40;2.80;;;;;;;;;;5042117;28;20409;-84
2023/05/12 01:01:54;;;;;;;4.60;3.83;;;;;;;;;;5039764;28;20432;-84
2023/05/12 01:04:20;;;;;;;3.43;2.50;;;;;;;;;;5043198;28;20413;-83
2023/05/12 01:06:53;;;;;;;4.43;2.40;;;;;;;;;;5042804;28;20792;-83
2023/05/12 01:09:20;;;;;;;5.53;3.23;;;;;;;;;;5040369;28;20456;-85
2023/05/12 01:11:46;;;;;;;3.27;2.90;;;;;;;;;;5040857;28;20422;-85
2023/05/12 01:14:12;;;;;;;2.83;2.27;;;;;;;;;;5026382;28;20413;-86
2023/05/12 01:16:40;;;;;;;2.83;2.30;;;;;;;;;;5043223;28;20475;-83
2023/05/12 01:19:09;;;;;;;3.13;1.93;;;;;;;;;;5043672;28;20210;-85
2023/05/12 01:21:35;;;;;;;3.67;2.03;;;;;;;;;;5039977;28;20910;-81
2023/05/12 01:24:05;;;;;;;3.40;2.50;;;;;;;;;;5042684;28;20422;-80
2023/05/12 01:26:32;;;;;;;2.83;2.47;;;;;;;;;;5043900;28;20410;-85
2023/05/12 01:28:58;;;;;;;2.43;1.90;;;;;;;;;;5042022;28;20408;-81
2023/05/12 01:31:24;;;;;;;5.80;3.10;;;;;;;;;;5042088;28;20448;-81
2023/05/12 01:33:50;;;;;;;2.33;2.10;;;;;;;;;;5043600;28;20434;-85
2023/05/12 01:36:16;;;;;;;5.40;3.87;;;;;;;;;;5041800;28;20459;-80
2023/05/12 01:38:42;;;;;;;2.87;1.73;;;;;;;;;;5042453;28;20419;-85
2023/05/12 01:41:08;;;;;;;3.00;2.37;;;;;;;;;;5043606;28;20206;-85
2023/05/12 01:43:34;;;;;;;5.70;2.50;;;;;;;;;;5038783;28;20424;-80
2023/05/12 01:46:02;;;;;;;3.23;1.80;;;;;;;;;;5042604;28;20398;-86
2023/05/12 01:48:28;;;;;;;3.90;2.60;;;;;;;;;;5043442;28;20179;-82
2023/05/12 01:50:54;;;;;;;3.80;2.60;;;;;;;;;;5041640;28;20424;-84
2023/05/12 01:53:20;;;;;;;2.30;2.07;;;;;;;;;;5042460;28;20925;-81
2023/05/12 01:55:46;;;;;;;3.10;2.43;;;;;;;;;;5043032;28;20229;-81
2023/05/12 01:58:12;;;;;;;3.60;2.47;;;;;;;;;;5040843;28;20533;-81
2023/05/12 02:00:38;;;;;;;2.80;1.93;;;;;;;;;;5042731;28;20420;-85
2023/05/12 02:03:04;;;;;;;4.30;2.90;;;;;;;;;;5042792;28;20422;-81
2023/05/12 02:05:30;;;;;;;4.37;1.50;;;;;;;;;;5041119;28;20170;-84
2023/05/12 02:07:56;;;;;;;4.80;1.90;;;;;;;;;;5042893;28;20473;-85
2023/05/12 02:10:22;;;;;;;1.93;1.27;;;;;;;;;;5024574;28;20435;-81
2023/05/12 02:12:48;;;;;;;2.90;1.93;;;;;;;;;;5041205;28;20410;-81
2023/05/12 02:15:13;;;;;;;4.27;2.73;;;;;;;;;;5042722;28;20414;-85
2023/05/12 02:17:39;;;;;;;2.17;1.90;;;;;;;;;;5042045;28;20417;-86
2023/05/12 02:20:06;;;;;;;1.60;1.43;;;;;;;;;;5041546;28;20181;-86
2023/05/12 02:22:31;;;;;;;3.47;2.70;;;;;;;;;;5046525;28;20174;-85
2023/05/12 02:24:57;;;;;;;1.80;1.37;;;;;;;;;;5027929;28;20425;-81
2023/05/12 02:27:23;;;;;;;2.83;2.20;;;;;;;;;;5045713;28;20779;-84
2023/05/12 02:29:50;;;;;;;3.50;2.83;;;;;;;;;;5046753;28;20186;-83
2023/05/12 02:32:15;;;;;;;3.63;1.63;;;;;;;;;;5027629;28;20537;-85
2023/05/12 02:34:41;;;;;;;5.20;2.20;;;;;;;;;;5028092;28;20445;-85
2023/05/12 02:37:07;;;;;;;1.93;1.73;;;;;;;;;;5046826;28;20220;-86
2023/05/12 02:39:33;;;;;;;2.20;1.53;;;;;;;;;;5042321;28;20205;-82
2023/05/12 02:41:59;;;;;;;3.57;2.57;;;;;;;;;;5046081;28;20420;-86
2023/05/12 02:44:26;;;;;;;3.57;2.00;;;;;;;;;;5046060;28;20167;-80
2023/05/12 02:46:58;;;;;;;3.40;1.90;;;;;;;;;;5044804;28;20796;-86
2023/05/12 02:49:31;;;;;;;2.87;1.50;;;;;;;;;;5045394;28;20408;-81
2023/05/12 02:51:57;;;;;;;3.40;1.63;;;;;;;;;;5043165;28;20771;-79
2023/05/12 02:54:23;;;;;;;3.20;1.90;;;;;;;;;;5045495;28;20491;-84
2023/05/12 02:56:48;;;;;;;3.10;1.73;;;;;;;;;;5046520;28;20226;-81
2023/05/12 02:59:14;;;;;;;2.70;1.67;;;;;;;;;;5044356;28;20409;-85
2023/05/12 03:01:40;;;;;;;4.53;2.00;;;;;;;;;;5045566;28;20408;-80
2023/05/12 03:04:06;;;;;;;1.87;1.60;;;;;;;;;;5046250;28;20179;-86
2023/05/12 03:06:32;;;;;;;3.10;2.20;;;;;;;;;;5026723;28;20170;-85
2023/05/12 03:08:58;;;;;;;2.40;1.50;;;;;;;;;;5045454;28;20493;-84
2023/05/12 03:11:25;;;;;;;2.27;1.57;;;;;;;;;;5027992;28;20437;-81
2023/05/12 03:13:51;;;;;;;3.67;2.00;;;;;;;;;;5025953;28;20412;-80
2023/05/12 03:16:17;;;;;;;2.93;1.93;;;;;;;;;;5045751;28;20479;-83
2023/05/12 03:18:43;;;;;;;2.80;2.07;;;;;;;;;;5045483;28;20485;-82
2023/05/12 03:21:09;;;;;;;4.80;2.53;;;;;;;;;;5044227;28;20419;-80
2023/05/12 03:23:35;;;;;;;2.77;1.97;;;;;;;;;;5045935;28;20409;-80
2023/05/12 03:26:01;;;;;;;3.50;2.30;;;;;;;;;;5045019;28;20474;-83
2023/05/12 03:28:27;;;;;;;2.03;1.47;;;;;;;;;;5043782;28;20411;-80
2023/05/12 03:30:53;;;;;;;3.33;2.10;;;;;;;;;;5045976;28;20410;-84
2023/05/12 03:33:19;;;;;;;2.37;1.77;;;;;;;;;;5026069;28;20180;-85
2023/05/12 03:35:45;;;;;;;4.50;2.00;;;;;;;;;;5044221;28;20513;-85
2023/05/12 03:38:11;;;;;;;2.93;2.37;;;;;;;;;;5035364;28;20172;-84
2023/05/12 03:40:37;;;;;;;4.10;2.70;;;;;;;;;;5035219;28;20176;-86
2023/05/12 03:43:02;;;;;;;2.97;2.67;;;;;;;;;;5035021;28;20187;-86
2023/05/12 03:45:28;;;;;;;3.73;2.23;;;;;;;;;;5035163;28;20768;-80
2023/05/12 03:47:54;;;;;;;3.90;2.20;;;;;;;;;;5035144;28;20175;-80
2023/05/12 03:50:20;;;;;;;2.23;2.00;;;;;;;;;;5035045;28;20425;-86
2023/05/12 03:52:46;;;;;;;3.63;2.07;;;;;;;;;;5035051;28;20176;-79
2023/05/12 03:55:13;;;;;;;4.00;2.93;;;;;;;;;;5034936;28;20928;-85
2023/05/12 03:57:47;;;;;;;3.10;2.60;;;;;;;;;;5034912;28;20175;-80
2023/05/12 04:00:13;;;;;;;2.70;1.93;;;;;;;;;;5034710;28;20410;-86
2023/05/12 04:02:40;;;;;;;3.13;2.20;;;;;;;;;;5034734;28;20473;-85
2023/05/12 04:05:07;;;;;;;5.20;2.67;;;;;;;;;;5034725;28;20492;-82
2023/05/12 04:07:33;;;;;;;3.20;2.30;;;;;;;;;;5016982;28;20944;-86
2023/05/12 04:09:59;;;;;;;2.67;2.20;;;;;;;;;;5034454;28;20553;-86
2023/05/12 04:12:25;;;;;;;2.90;2.00;;;;;;;;;;5034684;28;20447;-85
2023/05/12 04:14:51;;;;;;;3.28;2.25;;;;;;;;;;5033964;28;20451;-85
2023/05/12 04:17:18;;;;;;;3.63;2.33;;;;;;;;;;5034534;28;20705;-86
2023/05/12 04:19:43;;;;;;;2.50;2.30;;;;;;;;;;5034645;28;20515;-81
2023/05/12 04:22:09;;;;;;;3.70;2.13;;;;;;;;;;5034468;28;20472;-86
2023/05/12 04:24:37;;;;;;;2.87;2.10;;;;;;;;;;5034530;28;20914;-86
2023/05/12 04:27:03;;;;;;;3.10;2.30;;;;;;;;;;5034390;28;20417;-86
2023/05/12 04:29:29;;;;;;;4.17;2.00;;;;;;;;;;5033930;28;20417;-83
2023/05/12 04:31:54;;;;;;;4.00;2.57;;;;;;;;;;5034245;28;20410;-86
2023/05/12 04:34:20;;;;;;;2.83;1.90;;;;;;;;;;5034230;28;20651;-81
2023/05/12 04:36:46;;;;;;;3.03;1.93;;;;;;;;;;5034129;28;20478;-82
2023/05/12 04:39:12;;;;;;;4.33;3.40;;;;;;;;;;5016420;28;20178;-80
2023/05/12 04:41:38;;;;;;;3.37;2.87;;;;;;;;;;5034045;28;20180;-81
2023/05/12 04:44:04;;;;;;;3.23;2.03;;;;;;;;;;5033085;28;20411;-81
2023/05/12 04:46:30;;;;;;;3.93;2.50;;;;;;;;;;5033501;28;20410;-85
2023/05/12 04:48:56;;;;;;;4.40;3.03;;;;;;;;;;5033885;28;20768;-80
2023/05/12 04:51:22;;;;;;;7.03;2.10;;;;;;;;;;5033859;28;20183;-82
2023/05/12 04:53:48;;;;;;;3.53;2.50;;;;;;;;;;5033825;28;20171;-83
2023/05/12 04:56:17;;;;;;;2.70;2.10;;;;;;;;;;5033701;28;20473;-81
2023/05/12 04:58:43;;;;;;;3.77;2.47;;;;;;;;;;5033308;28;20172;-80
2023/05/12 05:01:11;;;;;;;3.20;2.50;;;;;;;;;;5033569;28;20429;-82
2023/05/12 05:03:36;;;;;;;2.70;2.27;;;;;;;;;;5033735;28;20406;-82
2023/05/12 05:06:02;;;;;;;3.10;2.50;;;;;;;;;;5033411;28;20414;-81
2023/05/12 05:08:28;;;;;;;5.10;2.47;;;;;;;;;;5037772;28;20527;-81
2023/05/12 05:10:54;;;;;;;2.90;1.80;;;;;;;;;;5053497;28;20509;-83
2023/05/12 05:13:21;;;;;;;4.17;2.40;;;;;;;;;;5052987;28;20195;-81
2023/05/12 05:15:51;;;;;;;2.27;2.07;;;;;;;;;;5053342;28;20560;-80
2023/05/12 05:18:17;;;;;;;3.90;2.40;;;;;;;;;;5053276;28;20183;-81
2023/05/12 05:20:44;;;;;;;4.60;3.23;;;;;;;;;;5053166;28;20409;-82
2023/05/12 05:23:10;;;;;;;4.40;1.57;;;;;;;;;;5035442;28;20929;-81
2023/05/12 05:25:36;;;;;;;3.97;2.53;;;;;;;;;;5035273;28;20425;-82
2023/05/12 05:28:02;;;;;;;2.77;1.83;;;;;;;;;;5034663;28;20417;-81
2023/05/12 05:30:28;;;;;;;4.57;2.90;;;;;;;;;;5053054;28;20420;-82
2023/05/12 05:32:54;;;;;;;3.27;2.47;;;;;;;;;;5053020;28;20178;-86
2023/05/12 05:35:20;;;;;;;3.20;2.10;;;;;;;;;;5052908;28;20465;-85
2023/05/12 05:37:46;;;;;;;3.33;2.27;;;;;;;;;;5052710;28;20503;-86
2023/05/12 05:40:12;;;;;;;2.70;1.73;;;;;;;;;;5052748;28;20802;-83
2023/05/12 05:42:38;;;;;;;2.47;1.90;;;;;;;;;;5052628;28;20429;-84
2023/05/12 05:45:07;;;;;;;2.83;1.37;;;;;;;;;;5053116;28;20943;-86
2023/05/12 05:47:33;;;;;;;3.43;2.30;;;;;;;;;;5052696;28;20415;-86
2023/05/12 05:49:59;;;;;;;2.70;2.00;;;;;;;;;;5052880;28;20963;-87
2023/05/12 05:52:25;;;;;;;2.80;1.90;;;;;;;;;;5052955;28;20406;-86
2023/05/12 05:54:51;;;;;;;3.43;2.43;;;;;;;;;;5052637;28;20456;-85
2023/05/12 05:57:17;;;;;;;4.77;2.03;;;;;;;;;;5052389;28;20668;-87
2023/05/12 05:59:43;;;;;;;3.90;2.80;;;;;;;;;;5052502;28;20196;-84
2023/05/12 06:02:09;;;;;;;4.00;2.70;;;;;;;;;;5052745;28;20203;-86
2023/05/12 06:04:35;;;;;;;2.87;1.60;;;;;;;;;;5052796;28;20414;-86
2023/05/12 06:07:01;;;;;;;2.50;2.20;;;;;;;;;;5034810;28;20540;-85
2023/05/12 06:09:26;;;;;;;2.43;1.73;;;;;;;;;;5052529;28;20459;-86
2023/05/12 06:11:52;;;;;;;2.93;2.07;;;;;;;;;;5052620;28;20418;-87
2023/05/12 06:14:18;;;;;;;3.17;2.70;;;;;;;;;;5052234;28;20744;-86
2023/05/12 06:16:44;;;;;;;3.70;2.50;;;;;;;;;;5052604;28;20211;-85
2023/05/12 06:19:11;;;;;;;2.10;1.90;;;;;;;;;;5052598;28;20180;-86
2023/05/12 06:21:37;;;;;;;2.30;1.63;;;;;;;;;;5052735;28;20553;-86
2023/05/12 06:24:02;;;;;;;3.13;2.50;;;;;;;;;;5052458;28;20467;-86
2023/05/12 06:26:28;;;;;;;4.43;2.57;;;;;;;;;;5052467;28;20415;-85
2023/05/12 06:28:55;;;;;;;4.20;2.30;;;;;;;;;;5052132;28;20489;-86
2023/05/12 06:31:21;;;;;;;2.70;2.50;;;;;;;;;;5034672;28;20542;-85
2023/05/12 06:33:47;;;;;;;3.80;1.73;;;;;;;;;;5052374;28;20418;-86
2023/05/12 06:36:13;;;;;;;3.10;2.13;;;;;;;;;;5052246;28;20548;-84
2023/05/12 06:38:39;;;;;;;4.23;2.93;;;;;;;;;;5052285;28;20410;-86
2023/05/12 06:41:05;;;;;;;4.10;2.80;;;;;;;;;;5052460;28;20442;-85
2023/05/12 06:43:31;;;;;;;2.90;2.23;;;;;;;;;;5051968;28;20169;-85
2023/05/12 06:45:57;;;;;;;2.50;2.00;;;;;;;;;;5052278;28;20408;-87
2023/05/12 06:48:23;;;;;;;2.43;2.10;;;;;;;;;;5052401;28;20441;-86
2023/05/12 06:50:49;;;;;;;2.43;1.50;;;;;;;;;;5052177;28;20440;-86
2023/05/12 06:53:15;;;;;;;2.90;1.83;;;;;;;;;;5052512;28;20810;-86
2023/05/12 06:55:42;;;;;;;3.90;2.57;;;;;;;;;;5052142;28;20216;-86
2023/05/12 06:58:08;;;;;;;2.30;2.00;;;;;;;;;;5051867;28;20588;-86
2023/05/12 07:00:34;;;;;;;3.80;2.57;;;;;;;;;;5052265;28;20402;-82
2023/05/12 07:03:00;;;;;;;2.50;2.30;;;;;;;;;;5052163;28;20413;-84
2023/05/12 07:05:26;;;;;;;6.13;2.37;;;;;;;;;;5052052;28;20172;-81
2023/05/12 07:07:52;;;;;;;2.37;1.70;;;;;;;;;;5052809;28;20426;-83
2023/05/12 07:10:19;;;;;;;2.20;1.90;;;;;;;;;;5055568;28;20459;-84
2023/05/12 07:12:46;;;;;;;2.60;2.30;;;;;;;;;;5055387;28;20621;-80
2023/05/12 07:15:11;;;;;;;3.60;2.20;;;;;;;;;;5055703;28;20494;-84
2023/05/12 07:17:37;;;;;;;2.10;1.77;;;;;;;;;;5037671;28;21070;-85
2023/05/12 07:20:04;;;;;;;2.97;2.63;;;;;;;;;;5055518;28;20249;-84
2023/05/12 07:22:31;;;;;;;4.57;2.43;;;;;;;;;;5055490;28;20220;-84
2023/05/12 07:24:57;;;;;;;3.17;2.83;;;;;;;;;;5055484;28;21007;-83
2023/05/12 07:27:23;;;;;;;2.93;2.67;;;;;;;;;;5055033;28;20414;-84
2023/05/12 07:29:49;;;;;;;4.37;2.67;;;;;;;;;;5055451;28;20891;-83
2023/05/12 07:32:15;;;;;;;3.70;2.30;;;;;;;;;;5055230;28;20871;-80
2023/05/12 07:34:41;;;;;;;5.10;2.27;;;;;;;;;;5055109;28;20177;-82
2023/05/12 07:37:06;;;;;;;4.60;2.47;;;;;;;;;;5055159;28;20969;-80
2023/05/12 07:39:32;;;;;;;2.83;1.83;;;;;;;;;;5055232;28;20180;-80
2023/05/12 07:41:58;;;;;;;3.73;2.33;;;;;;;;;;5055253;28;20203;-80
2023/05/12 07:44:25;;;;;;;4.03;2.37;;;;;;;;;;5054815;28;20176;-80
2023/05/12 07:46:50;;;;;;;3.60;1.83;;;;;;;;;;5037148;28;20477;-80
2023/05/12 07:49:16;;;;;;;3.20;2.07;;;;;;;;;;5055152;28;20499;-80
2023/05/12 07:51:42;;;;;;;3.13;2.13;;;;;;;;;;5055028;28;20678;-80
2023/05/12 07:54:08;;;;;;;1.90;1.53;;;;;;;;;;5054979;28;20173;-80
2023/05/12 07:56:34;;;;;;;2.70;2.23;;;;;;;;;;5054903;28;21041;-82
2023/05/12 07:59:00;;;;;;;2.83;2.53;;;;;;;;;;5054458;28;20554;-81
2023/05/12 08:01:26;;;;;;;3.60;2.50;;;;;;;;;;5054805;28;20421;-80
2023/05/12 08:03:52;;;;;;;3.33;2.53;;;;;;;;;;5054727;28;20901;-86
2023/05/12 08:06:18;;;;;;;2.60;2.07;;;;;;;;;;5054726;28;20224;-86
2023/05/12 08:08:56;;;;;;;4.97;2.40;;;;;;;;;;5054512;28;20229;-87
2023/05/12 08:11:22;;;;;;;3.20;2.33;;;;;;;;;;5054575;28;20176;-85
2023/05/12 08:13:48;;;;;;;2.10;1.87;;;;;;;;;;5054228;28;20405;-86
2023/05/12 08:16:14;;;;;;;2.97;2.40;;;;;;;;;;5054517;28;20621;-84
2023/05/12 08:18:40;;;;;;;3.67;2.13;;;;;;;;;;5054234;28;20413;-85
2023/05/12 08:21:06;;;;;;;4.40;2.20;;;;;;;;;;5054454;28;20901;-83
2023/05/12 08:23:32;;;;;;;3.20;2.20;;;;;;;;;;5054397;28;20174;-84
2023/05/12 08:25:58;;;;;;;3.83;2.50;;;;;;;;;;5054395;28;20427;-84
2023/05/12 08:28:24;;;;;;;2.03;1.83;;;;;;;;;;5053936;28;20452;-83
2023/05/12 08:30:50;;;;;;;2.50;2.20;;;;;;;;;;5054221;28;20256;-84
2023/05/12 08:33:16;;;;;;;2.93;1.70;;;;;;;;;;5054157;28;20853;-83
2023/05/12 08:35:42;;;;;;;3.30;1.70;;;;;;;;;;5036291;28;20177;-82
2023/05/12 08:38:08;;;;;;;2.93;1.70;;;;;;;;;;5054138;28;20668;-84
2023/05/12 08:40:39;;;;;;;2.30;1.93;;;;;;;;;;5054097;28;20224;-85
2023/05/12 08:43:14;;;;;;;2.77;2.40;;;;;;;;;;5053676;28;20409;-86
2023/05/12 08:45:40;;;;;;;4.00;3.10;;;;;;;;;;5053921;28;20435;-82
2023/05/12 08:48:08;;;;;;;3.93;2.70;;;;;;;;;;5053922;28;20932;-84
2023/05/12 08:50:38;;;;;;;4.13;2.00;;;;;;;;;;5053838;28;20174;-83
2023/05/12 08:53:05;;;;;;;2.67;2.43;;;;;;;;;;5053796;28;20415;-83
2023/05/12 08:55:31;;;;;;;2.37;1.77;;;;;;;;;;5035917;28;20455;-83
2023/05/12 08:57:58;;;;;;;2.80;2.30;;;;;;;;;;5053295;28;20426;-84
2023/05/12 09:00:27;;;;;;;2.40;1.87;;;;;;;;;;5053571;28;20412;-84
2023/05/12 09:02:54;;;;;;;1.67;1.50;;;;;;;;;;5053662;28;20507;-83
2023/05/12 09:05:19;;;;;;;2.80;1.80;;;;;;;;;;5053519;28;20491;-85
2023/05/12 09:07:46;;;;;;;2.83;2.20;;;;;;;;;;5053404;28;20575;-82
2023/05/12 09:10:16;;;;;;;2.90;2.57;;;;;;;;;;5053568;28;20225;-85
2023/05/12 09:12:45;;;;;;;3.67;1.93;;;;;;;;;;5035383;28;20419;-85
2023/05/12 09:15:14;;;;;;;1.70;1.60;;;;;;;;;;5053543;28;20751;-80
2023/05/12 09:17:40;;;;;;;2.20;1.90;;;;;;;;;;5053285;28;20411;-82
2023/05/12 09:20:06;;;;;;;1.70;1.60;;;;;;;;;;5053352;28;20890;-83
2023/05/12 09:22:33;;;;;;;2.50;1.73;;;;;;;;;;5053449;28;20315;-84
2023/05/12 09:25:00;;;;;;;1.77;1.67;;;;;;;;;;5053275;28;20773;-82
2023/05/12 09:27:26;;;;;;;2.00;1.70;;;;;;;;;;5052721;28;20559;-84
2023/05/12 09:29:52;;;;;;;2.50;2.00;;;;;;;;;;5035266;28;20416;-83
2023/05/12 09:32:18;;;;;;;3.83;2.20;;;;;;;;;;5052571;28;20416;-83
2023/05/12 09:34:44;;;;;;;1.60;1.50;;;;;;;;;;5053133;28;20414;-81
2023/05/12 09:37:11;;;;;;;2.20;1.87;;;;;;;;;;5053103;28;20418;-84
2023/05/12 09:39:37;;;;;;;3.00;2.40;;;;;;;;;;5053076;28;20407;-83
2023/05/12 09:42:03;;;;;;;2.73;1.67;;;;;;;;;;5052641;28;20413;-81
2023/05/12 09:44:32;;;;;;;2.33;1.70;;;;;;;;;;5053030;28;20536;-82
2023/05/12 09:47:08;;;;;;;2.50;1.70;;;;;;;;;;5035055;28;20529;-83
2023/05/12 09:49:35;;;;;;;3.40;2.30;;;;;;;;;;5052914;28;20439;-82
2023/05/12 09:52:03;;;;;;;3.23;2.50;;;;;;;;;;5052922;28;20905;-83
2023/05/12 09:54:30;;;;;;;2.77;1.87;;;;;;;;;;5052807;28;20404;-82
2023/05/12 09:57:01;;;;;;;2.07;1.60;;;;;;;;;;5052543;28;20774;-81
2023/05/12 09:59:37;;;;;;;1.90;1.50;;;;;;;;;;5052837;28;20401;-81
2023/05/12 10:02:04;;;;;;;2.23;2.03;;;;;;;;;;5052858;28;20450;-82
2023/05/12 10:04:40;;;;;;;3.17;2.07;;;;;;;;;;5052804;28;20408;-83
2023/05/12 10:07:08;;;;;;;2.47;2.20;;;;;;;;;;5052671;28;20471;-83
2023/05/12 10:09:38;;;;;;;1.90;1.70;;;;;;;;;;5052482;28;20496;-82
2023/05/12 10:12:05;;;;;;;2.90;2.60;;;;;;;;;;5052450;28;20932;-83
2023/05/12 10:14:31;;;;;;;3.30;2.60;;;;;;;;;;5034861;28;20415;-83
2023/05/12 10:16:57;;;;;;;1.63;1.50;;;;;;;;;;5052653;28;20405;-81
2023/05/12 10:19:25;;;;;;;4.13;2.03;;;;;;;;;;5052562;28;20424;-82
2023/05/12 10:21:51;;;;;;;4.00;1.97;;;;;;;;;;5052628;28;20450;-82
2023/05/12 10:24:16;;;;;;;2.80;1.70;;;;;;;;;;5052632;28;20411;-82
2023/05/12 10:26:43;;;;;;;2.23;2.07;;;;;;;;;;5052295;28;20304;-83
2023/05/12 10:29:09;;;;;;;1.87;1.77;;;;;;;;;;5052600;28;20185;-82
2023/05/12 10:31:37;;;;;;;3.20;1.50;;;;;;;;;;5052510;28;20428;-84
2023/05/12 10:34:03;;;;;;;5.40;2.20;;;;;;;;;;5052349;28;20435;-84
2023/05/12 10:36:29;;;;;;;4.67;1.63;;;;;;;;;;5052435;28;20424;-84
2023/05/12 10:38:55;;;;;;;2.20;2.10;;;;;;;;;;5052466;28;20796;-83
2023/05/12 10:41:34;;;;;;;2.33;1.90;;;;;;;;;;5052435;28;20416;-84
2023/05/12 10:44:00;;;;;;;1.80;1.60;;;;;;;;;;5055906;28;20816;-83
2023/05/12 10:46:26;;;;;;;2.53;1.77;;;;;;;;;;5056118;28;20980;-83
2023/05/12 10:48:55;;;;;;;2.17;2.00;;;;;;;;;;5056178;28;20415;-81
2023/05/12 10:51:27;;;;;;;1.77;1.53;;;;;;;;;;5056145;28;20465;-84
2023/05/12 10:53:56;;;;;;;3.20;1.30;;;;;;;;;;5056194;28;20419;-83
2023/05/12 10:56:23;;;;;;;2.17;1.87;;;;;;;;;;5056064;28;20443;-85
2023/05/12 10:59:08;;;;;;;3.00;1.70;;;;;;;;;;5055569;28;20927;-84
2023/05/12 11:01:34;;;;;;;1.17;1.07;;;;;;;;;;5056084;28;20936;-81
2023/05/12 11:04:13;;;;;;;2.17;1.90;;;;;;;;;;5055914;28;20408;-85
2023/05/12 11:06:40;;;;;;;1.73;1.63;;;;;;;;;;5055764;28;20261;-83
2023/05/12 11:09:06;;;;;;;3.20;1.90;;;;;;;;;;5055598;28;20463;-81
2023/05/12 11:11:32;;;;;;;2.20;1.30;;;;;;;;;;5055655;28;20400;-81
2023/05/12 11:13:58;;;;;;;2.70;2.40;;;;;;;;;;5055593;28;20910;-82
2023/05/12 11:16:25;;;;;;;1.57;1.43;;;;;;;;;;5037833;28;20407;-81
2023/05/12 11:19:03;;;;;;;3.07;1.50;;;;;;;;;;5055914;28;20180;-83
2023/05/12 11:21:30;;;;;;;1.73;1.23;;;;;;;;;;5055651;28;20412;-84
2023/05/12 11:23:56;;;;;;;2.33;0.93;;;;;;;;;;5055606;28;20400;-84
2023/05/12 11:26:22;;;;;;;2.00;1.27;;;;;;;;;;5055338;28;20472;-84
2023/05/12 11:28:51;;;;;;;1.50;1.40;;;;;;;;;;5054976;28;20399;-84
2023/05/12 11:31:19;;;;;;;2.00;1.30;;;;;;;;;;5055499;28;20224;-82
2023/05/12 11:33:45;;;;;;;2.43;1.83;;;;;;;;;;5037423;28;20416;-84
2023/05/12 11:36:11;;;;;;;2.10;1.80;;;;;;;;;;5055230;28;20921;-83
2023/05/12 11:38:37;;;;;;;2.10;1.20;;;;;;;;;;5055302;28;20408;-82
2023/05/12 11:41:03;;;;;;;2.20;2.00;;;;;;;;;;5055194;28;20412;-82
2023/05/12 11:43:28;;;;;;;2.00;1.70;;;;;;;;;;5054734;28;20706;-81
2023/05/12 11:45:55;;;;;;;2.60;1.73;;;;;;;;;;5055039;28;20455;-84
2023/05/12 11:48:21;;;;;;;1.90;1.80;;;;;;;;;;5055114;28;20466;-83
2023/05/12 11:50:47;;;;;;;2.97;1.83;;;;;;;;;;5054965;28;20440;-82
2023/05/12 11:53:16;;;;;;;2.00;1.60;;;;;;;;;;5054757;28;20470;-81
2023/05/12 11:55:49;;;;;;;1.93;1.60;;;;;;;;;;5054732;28;20408;-84
2023/05/12 11:58:26;;;;;;;1.53;1.43;;;;;;;;;;5054657;28;20408;-82
2023/05/12 12:00:52;;;;;;;2.10;1.33;;;;;;;;;;5054793;28;20439;-83
2023/05/12 12:03:18;;;;;;;1.73;1.20;;;;;;;;;;5054803;28;20467;-83
2023/05/12 12:05:45;;;;;;;1.40;1.30;;;;;;;;;;5044004;28;20421;-83
2023/05/12 12:08:12;;;;;;;1.67;1.13;;;;;;;;;;5044061;28;20425;-84
2023/05/12 12:10:39;;;;;;;2.03;1.77;;;;;;;;;;5039518;28;20427;-84
2023/05/12 12:13:05;;;;;;;1.23;1.10;;;;;;;;;;5044722;28;20420;-84
2023/05/12 12:15:31;;;;;;;1.87;1.50;;;;;;;;;;5043607;28;20748;-81
2023/05/12 12:17:57;;;;;;;1.90;1.70;;;;;;;;;;5044747;28;20413;-84
2023/05/12 12:20:23;;;;;;;2.37;1.40;;;;;;;;;;5043368;28;20424;-84
2023/05/12 12:22:50;;;;;;;2.27;1.67;;;;;;;;;;5043953;28;20816;-84
2023/05/12 12:25:16;;;;;;;1.67;1.47;;;;;;;;;;5027262;28;20917;-85
2023/05/12 12:27:42;;;;;;;2.40;1.93;;;;;;;;;;5042716;28;20472;-82
2023/05/12 12:30:08;;;;;;;1.60;1.47;;;;;;;;;;5043860;28;20177;-85
2023/05/12 12:32:34;;;;;;;1.63;1.13;;;;;;;;;;5044659;28;20205;-83
2023/05/12 12:35:02;;;;;;;2.10;1.90;;;;;;;;;;5048386;28;20412;-85
2023/05/12 12:37:28;;;;;;;2.80;1.53;;;;;;;;;;5054076;28;20628;-83
2023/05/12 12:39:54;;;;;;;1.93;1.47;;;;;;;;;;5053900;28;20400;-85
2023/05/12 12:42:21;;;;;;;2.77;1.63;;;;;;;;;;5035862;28;20497;-85
2023/05/12 12:44:49;;;;;;;1.67;1.47;;;;;;;;;;5047775;28;20510;-83
2023/05/12 12:47:15;;;;;;;1.73;1.63;;;;;;;;;;5023392;28;20477;-83
2023/05/12 12:49:41;;;;;;;1.60;1.50;;;;;;;;;;5033596;28;20413;-82
2023/05/12 12:52:07;;;;;;;1.80;1.40;;;;;;;;;;5033777;28;20420;-82
2023/05/12 12:54:33;;;;;;;2.00;1.80;;;;;;;;;;5033472;28;20404;-83
2023/05/12 12:56:59;;;;;;;2.20;1.27;;;;;;;;;;5015438;28;20656;-83
2023/05/12 12:59:25;;;;;;;1.70;1.53;;;;;;;;;;5033517;28;20409;-85
2023/05/12 13:01:51;;;;;;;1.40;1.20;;;;;;;;;;5033546;28;20567;-82
2023/05/12 13:04:21;;;;;;;3.80;2.20;;;;;;;;;;5033254;28;20467;-84
2023/05/12 13:06:47;;;;;;;2.27;1.80;;;;;;;;;;5032443;28;20476;-81
2023/05/12 13:09:13;;;;;;;3.90;2.67;;;;;;;;;;5033105;28;20464;-82
2023/05/12 13:11:39;;;;;;;1.93;1.20;;;;;;;;;;5033008;28;20432;-85
2023/05/12 13:14:07;;;;;;;1.97;1.77;;;;;;;;;;5033248;28;20167;-82
2023/05/12 13:16:36;;;;;;;2.50;2.27;;;;;;;;;;5032939;28;20224;-82
2023/05/12 13:19:02;;;;;;;2.47;2.07;;;;;;;;;;5033181;28;20421;-83
2023/05/12 13:21:28;;;;;;;2.23;1.73;;;;;;;;;;5033072;28;20880;-85
2023/05/12 13:23:54;;;;;;;2.63;2.10;;;;;;;;;;5033214;28;20489;-81
2023/05/12 13:26:21;;;;;;;2.40;2.17;;;;;;;;;;5032674;28;20468;-82
2023/05/12 13:28:47;;;;;;;3.63;1.93;;;;;;;;;;5032934;28;20424;-84
2023/05/12 13:31:13;;;;;;;3.50;2.20;;;;;;;;;;5038873;28;20421;-84
2023/05/12 13:33:39;;;;;;;2.60;2.40;;;;;;;;;;5044250;28;20205;-82
2023/05/12 13:36:05;;;;;;;15.90;2.10;;;;;;;;;;5034064;28;20514;-83
2023/05/12 13:38:32;;;;;;;2.90;2.47;;;;;;;;;;5032479;28;20547;-81
2023/05/12 13:40:58;;;;;;;6.23;2.00;;;;;;;;;;5032769;28;20455;-80
2023/05/12 13:43:24;;;;;;;3.27;2.20;;;;;;;;;;5032536;28;20895;-83
2023/05/12 13:45:50;;;;;;;2.57;2.13;;;;;;;;;;5014885;28;20558;-80
2023/05/12 13:48:16;;;;;;;3.03;2.20;;;;;;;;;;5032763;28;20183;-84
2023/05/12 13:50:42;;;;;;;2.40;2.17;;;;;;;;;;5032569;28;20895;-83
2023/05/12 13:53:08;;;;;;;3.60;1.70;;;;;;;;;;5032682;28;20179;-84
2023/05/12 13:55:37;;;;;;;3.17;2.40;;;;;;;;;;5032835;28;20216;-84
2023/05/12 13:58:04;;;;;;;3.10;2.70;;;;;;;;;;5014036;28;20185;-83
2023/05/12 14:00:30;;;;;;;2.50;2.27;;;;;;;;;;5032470;28;20424;-83
2023/05/12 14:02:59;;;;;;;2.90;1.97;;;;;;;;;;5032631;28;20420;-83
2023/05/12 14:05:26;;;;;;;2.50;2.10;;;;;;;;;;5031084;28;20424;-83
2023/05/12 14:07:51;;;;;;;2.50;2.00;;;;;;;;;;5031837;28;20472;-82
2023/05/12 14:10:17;;;;;;;2.37;2.00;;;;;;;;;;5031986;28;20527;-84
2023/05/12 14:12:44;;;;;;;4.30;2.70;;;;;;;;;;5031859;28;20174;-81
2023/05/12 14:15:12;;;;;;;2.57;2.20;;;;;;;;;;5032497;28;20412;-87
2023/05/12 14:17:38;;;;;;;3.60;1.73;;;;;;;;;;5034426;28;20496;-86
2023/05/12 14:20:05;;;;;;;3.50;2.10;;;;;;;;;;5036396;28;20540;-84
2023/05/12 14:22:31;;;;;;;2.33;2.07;;;;;;;;;;5036376;28;20173;-84
2023/05/12 14:24:57;;;;;;;3.37;2.17;;;;;;;;;;5036307;28;20424;-87
2023/05/12 14:27:23;;;;;;;3.20;1.60;;;;;;;;;;5035890;28;20469;-83
2023/05/12 14:29:49;;;;;;;3.93;2.10;;;;;;;;;;5036323;28;20177;-84
2023/05/12 14:32:17;;;;;;;1.80;1.70;;;;;;;;;;5018249;28;20457;-85
2023/05/12 14:34:42;;;;;;;3.30;2.20;;;;;;;;;;5035622;28;20520;-82
2023/05/12 14:37:08;;;;;;;2.20;1.63;;;;;;;;;;5036296;28;20500;-85
2023/05/12 14:39:34;;;;;;;3.07;2.13;;;;;;;;;;5036308;28;20201;-82